Time;durP1;ratioP1;P1;durP2;ratioP2;P2;SDS_P1;SDS_P2;PMS_P1;PMS_P2;Temp;Humidity;BMP_temperature;BMP_pressure;BME280_temperature;BME280_humidity;BME280_pressure;Samples;Min_cycle;Max_cycle;Signal;HPM_P1;HPM_P2
2022/11/11 00:01:55;;;;;;;15.73;13.02;;;;;;;20.33;45.74;95757.59;4993483;28;20757;-61
2022/11/11 00:04:20;;;;;;;15.98;12.85;;;;;;;21.42;45.59;95921.28;4982015;28;20038;-60
2022/11/11 00:06:46;;;;;;;17.40;13.68;;;;;;;22.12;45.69;96033.72;4982440;28;20148;-60
2022/11/11 00:09:11;;;;;;;16.50;13.05;;;;;;;22.25;45.92;96047.72;4970336;28;20165;-61
2022/11/11 00:11:37;;;;;;;16.48;13.25;;;;;;;21.92;45.83;95980.53;4992359;28;20492;-61
2022/11/11 00:14:02;;;;;;;16.35;12.95;;;;;;;22.24;45.99;96046.25;4978820;28;20050;-62
2022/11/11 00:25:04;;;;;;;15.55;13.05;;;;;;;22.22;46.04;96048.69;4971940;28;20526;-61
2022/11/11 00:27:26;;;;;;;15.95;12.60;;;;;;;21.10;45.54;95895.91;4904393;28;20494;-58
2022/11/11 00:29:51;;;;;;;18.48;13.20;;;;;;;22.06;45.87;96051.94;4900829;28;20204;-61
2022/11/11 00:32:23;;;;;;;16.90;13.13;;;;;;;22.01;45.90;96030.84;4894173;28;20812;-61
2022/11/11 00:37:33;;;;;;;16.83;13.18;;;;;;;22.13;45.86;96056.94;4894968;28;20101;-61
2022/11/11 00:39:59;;;;;;;17.17;12.68;;;;;;;22.18;45.74;96063.69;4900667;28;20066;-60
2022/11/11 00:42:25;;;;;;;16.67;13.38;;;;;;;22.17;45.89;96065.66;4903435;28;20073;-60
2022/11/11 00:44:50;;;;;;;17.17;13.50;;;;;;;22.17;45.91;96057.50;4904339;28;20346;-59
2022/11/11 00:52:49;;;;;;;17.30;13.18;;;;;;;22.15;45.92;96054.53;4868447;28;20069;-59
2022/11/11 00:55:14;;;;;;;15.45;12.63;;;;;;;22.05;46.02;96047.72;4922422;28;21052;-61
2022/11/11 00:57:40;;;;;;;15.63;12.75;;;;;;;20.94;45.68;95875.91;4905009;28;20195;-60
2022/11/11 01:00:06;;;;;;;15.45;12.52;;;;;;;22.14;45.92;96082.94;4906682;28;20269;-60
2022/11/11 01:02:31;;;;;;;16.33;13.13;;;;;;;22.10;45.84;96047.03;4901254;28;20144;-61
2022/11/11 01:04:56;;;;;;;16.27;12.82;;;;;;;22.09;45.95;96040.09;4902073;28;20061;-60
2022/11/11 01:07:22;;;;;;;16.15;13.13;;;;;;;22.12;45.95;96050.03;4903727;28;20243;-61
2022/11/11 01:09:47;;;;;;;16.73;12.70;;;;;;;22.14;46.02;96049.56;4900654;28;20566;-60
2022/11/11 01:12:13;;;;;;;15.30;12.43;;;;;;;22.14;45.78;96058.47;4907032;28;20212;-59
2022/11/11 01:14:38;;;;;;;17.50;13.38;;;;;;;22.12;45.99;96050.03;4900690;28;21550;-60
2022/11/11 01:17:05;;;;;;;15.93;12.73;;;;;;;22.13;46.01;96048.78;4913044;28;20096;-62
2022/11/11 01:19:31;;;;;;;15.13;12.18;;;;;;;21.79;45.91;95996.44;4908783;28;20054;-59
2022/11/11 01:21:56;;;;;;;17.23;13.35;;;;;;;20.16;45.82;95743.03;4909778;28;20050;-61
2022/11/11 01:24:22;;;;;;;15.95;12.60;;;;;;;22.07;45.98;96047.97;4907555;28;20152;-57
2022/11/11 01:26:47;;;;;;;15.60;12.85;;;;;;;22.10;45.95;96049.75;4907341;28;20170;-60
2022/11/11 01:29:13;;;;;;;14.63;12.38;;;;;;;21.96;45.87;96026.09;4927879;28;22030;-60
2022/11/11 01:31:38;;;;;;;15.43;12.77;;;;;;;21.11;45.81;95902.09;4901549;28;20464;-59
2022/11/11 01:34:03;;;;;;;15.63;13.25;;;;;;;20.74;46.21;95846.03;4907490;28;20042;-60
2022/11/11 01:36:29;;;;;;;16.00;12.90;;;;;;;22.03;45.99;96042.00;4913820;28;20507;-60
2022/11/11 01:38:58;;;;;;;16.15;13.00;;;;;;;21.88;46.06;96012.63;4906168;28;21962;-60
2022/11/11 01:41:31;;;;;;;15.40;12.77;;;;;;;22.08;45.86;96054.91;4907265;28;20062;-59
2022/11/11 01:43:57;;;;;;;16.08;12.80;;;;;;;21.76;45.94;95994.66;4948323;28;20655;-59
2022/11/11 01:46:33;;;;;;;16.10;12.70;;;;;;;22.08;45.99;96046.75;4941524;28;20878;-60
2022/11/11 01:49:25;;;;;;;16.23;12.48;;;;;;;22.08;46.15;96044.03;4948911;28;20057;-60
2022/11/11 01:52:25;;;;;;;13.85;12.00;;;;;;;21.96;46.05;96031.53;4947461;28;20049;-59
2022/11/11 01:55:02;;;;;;;15.48;12.48;;;;;;;22.06;45.93;96084.56;4941769;28;20625;-60
2022/11/11 01:58:01;;;;;;;14.55;12.48;;;;;;;22.07;46.19;96053.41;4949522;28;20123;-61
2022/11/11 02:00:26;;;;;;;16.35;12.90;;;;;;;21.86;45.99;96025.94;4922774;28;20049;-61
2022/11/11 02:02:54;;;;;;;15.40;12.18;;;;;;;21.84;45.79;96033.81;4950493;28;20787;-60
2022/11/11 02:08:13;;;;;;;15.13;12.70;;;;;;;22.05;46.11;96060.56;4942383;28;22106;-60
2022/11/11 02:10:40;;;;;;;16.02;12.48;;;;;;;21.82;45.90;96030.81;4913486;28;20536;-61
2022/11/11 02:16:15;;;;;;;15.63;12.65;;;;;;;22.03;45.94;96069.22;4879124;28;20684;-59
2022/11/11 02:18:41;;;;;;;16.27;12.73;;;;;;;21.03;45.78;95912.59;4888552;28;20122;-59
2022/11/11 02:21:07;;;;;;;14.48;12.35;;;;;;;21.91;45.89;96047.00;4899991;28;21316;-59
2022/11/11 02:23:43;;;;;;;16.05;12.50;;;;;;;22.02;46.02;96084.03;4940096;28;21150;-61
2022/11/11 02:26:09;;;;;;;16.15;12.25;;;;;;;21.97;45.94;96059.44;4923429;28;21498;-61
2022/11/11 02:28:34;;;;;;;14.88;12.43;;;;;;;22.01;46.04;96071.63;4913647;28;20209;-60
2022/11/11 02:31:00;;;;;;;15.73;12.57;;;;;;;22.01;45.90;96060.75;4947733;28;20079;-59
2022/11/11 02:33:25;;;;;;;17.05;13.02;;;;;;;21.95;46.26;96056.47;4948831;28;20128;-59
2022/11/11 02:35:57;;;;;;;15.13;12.95;;;;;;;22.01;46.25;96060.75;4909758;28;20041;-61
2022/11/11 02:38:26;;;;;;;15.70;12.65;;;;;;;21.64;45.91;96014.75;4923309;28;20060;-60
2022/11/11 02:43:35;;;;;;;17.00;13.02;;;;;;;21.92;46.15;96052.72;4908618;28;22070;-61
2022/11/11 02:46:02;;;;;;;15.38;12.48;;;;;;;21.96;46.20;96057.97;4924221;28;20132;-60
2022/11/11 02:48:28;;;;;;;14.80;12.23;;;;;;;21.98;46.00;96067.13;4916597;28;20046;-60
2022/11/11 02:50:53;;;;;;;14.40;12.02;;;;;;;21.83;45.97;96043.22;4917591;28;21710;-60
2022/11/11 02:53:19;;;;;;;14.85;12.30;;;;;;;20.99;45.80;95906.63;4915752;28;20557;-61
2022/11/11 02:55:44;;;;;;;14.85;12.68;;;;;;;21.70;46.04;96019.06;4915507;28;20060;-61
2022/11/11 02:58:10;;;;;;;15.90;12.52;;;;;;;21.99;46.18;96068.66;4917381;28;20173;-57
2022/11/11 03:00:35;;;;;;;15.63;12.13;;;;;;;19.78;45.77;95733.50;4915675;28;20141;-60
2022/11/11 03:03:01;;;;;;;15.68;12.32;;;;;;;21.89;46.06;96063.06;4918697;28;20630;-60
2022/11/11 03:05:26;;;;;;;15.48;12.38;;;;;;;20.88;45.92;95899.53;4916800;28;20652;-61
2022/11/11 03:07:52;;;;;;;15.63;12.35;;;;;;;21.97;46.20;96065.66;4898046;28;20200;-59
2022/11/11 03:10:17;;;;;;;15.30;11.65;;;;;;;21.97;46.06;96073.81;4910023;28;20045;-60
2022/11/11 03:12:43;;;;;;;13.70;12.13;;;;;;;20.84;45.91;95899.00;4916075;28;20042;-61
2022/11/11 03:15:09;;;;;;;14.23;12.25;;;;;;;21.93;46.13;96061.66;4894032;28;20272;-60
2022/11/11 03:17:40;;;;;;;15.00;12.25;;;;;;;20.85;46.07;95900.47;4915738;28;20043;-59
2022/11/11 03:23:14;;;;;;;15.27;12.57;;;;;;;21.71;46.35;96030.69;4916699;28;20181;-59
2022/11/11 03:25:44;;;;;;;14.30;12.13;;;;;;;21.97;46.04;96071.09;4913893;28;20141;-60
2022/11/11 03:28:10;;;;;;;15.27;12.43;;;;;;;21.11;46.25;95959.13;4898461;28;20561;-60
2022/11/11 03:30:36;;;;;;;16.17;12.73;;;;;;;21.93;46.02;96062.38;4897902;28;20056;-61
2022/11/11 03:33:02;;;;;;;14.52;12.23;;;;;;;21.89;46.21;96069.25;4915211;28;21450;-58
2022/11/11 03:35:29;;;;;;;14.48;11.75;;;;;;;21.02;45.92;95916.53;4895169;28;22329;-61
2022/11/11 03:40:38;;;;;;;15.43;11.95;;;;;;;21.93;46.07;96048.03;4913431;28;20061;-60
2022/11/11 03:43:04;;;;;;;14.98;12.27;;;;;;;21.96;46.06;96064.16;4921790;28;21952;-60
2022/11/11 03:45:29;;;;;;;13.95;11.90;;;;;;;20.70;45.93;95867.16;4914877;28;20478;-60
2022/11/11 03:47:55;;;;;;;14.50;11.88;;;;;;;21.96;46.19;96066.88;4898970;28;20049;-59
2022/11/11 03:50:21;;;;;;;14.27;12.02;;;;;;;20.81;45.90;95894.50;4915317;28;20069;-60
2022/11/11 03:52:46;;;;;;;15.07;12.05;;;;;;;21.95;46.05;96068.09;4924234;28;20069;-59
2022/11/11 03:55:12;;;;;;;14.45;12.23;;;;;;;21.04;46.13;95938.53;4904921;28;20084;-60
2022/11/11 03:57:41;;;;;;;14.38;12.13;;;;;;;21.97;46.07;96071.09;4916250;28;20045;-59
2022/11/11 04:00:07;;;;;;;14.13;11.87;;;;;;;21.96;45.99;96064.16;4903272;28;20080;-61
2022/11/11 04:10:46;;;;;;;14.57;12.10;;;;;;;21.94;46.25;96058.44;4915355;28;20065;-59
2022/11/11 04:16:05;;;;;;;14.65;12.07;;;;;;;21.95;45.96;96065.38;4904620;28;20119;-61
2022/11/11 04:21:56;;;;;;;14.50;11.68;;;;;;;21.81;46.03;96040.19;4914374;28;20699;-60
2022/11/11 04:25:47;;;;;;;14.75;11.82;;;;;;;21.96;46.04;96066.13;4904112;28;20724;-61
2022/11/11 04:26:48;;;;;;;13.70;11.25;;;;;;;21.94;46.21;96066.59;4916022;28;20046;-60
2022/11/11 04:29:35;;;;;;;13.65;11.23;;;;;;;21.74;45.96;96040.59;4897268;28;20057;-59
2022/11/11 04:34:50;;;;;;;14.80;12.10;;;;;;;21.66;46.69;96102.03;4914464;28;20056;-60
2022/11/11 04:37:15;;;;;;;16.27;12.23;;;;;;;21.67;46.31;96035.56;4914444;28;20921;-60
2022/11/11 04:42:25;;;;;;;14.13;11.32;;;;;;;21.49;45.43;95968.63;4911528;28;20072;-60
2022/11/11 04:47:36;;;;;;;13.68;10.90;;;;;;;22.53;45.16;96084.19;4915989;28;20084;-61
2022/11/11 04:50:01;;;;;;;14.02;11.85;;;;;;;22.60;44.86;96073.66;4905619;28;20779;-61
2022/11/11 04:52:27;;;;;;;13.32;11.52;;;;;;;22.69;44.41;96070.00;4899373;28;20180;-60
2022/11/11 04:57:40;;;;;;;13.80;11.02;;;;;;;22.63;44.47;96050.13;4915575;28;20168;-60
2022/11/11 05:00:06;;;;;;;14.13;10.70;;;;;;;22.88;44.26;96087.56;4906074;28;20115;-59
2022/11/11 05:05:21;;;;;;;13.07;10.32;;;;;;;22.84;44.11;96097.91;4904567;28;21422;-59
2022/11/11 05:10:30;;;;;;;12.40;10.48;;;;;;;23.55;43.24;96074.81;4915458;28;20133;-60
2022/11/11 05:21:19;;;;;;;12.35;10.45;;;;;;;23.41;43.57;96078.41;4917460;28;20061;-61
2022/11/11 05:21:21;;;;;;;12.15;10.30;;;;;;;23.41;42.80;96075.69;4929473;28;21718;-63
2022/11/11 05:26:32;;;;;;;13.10;10.95;;;;;;;23.62;42.52;96079.81;4906223;28;21699;-62
2022/11/11 05:28:57;;;;;;;13.07;10.43;;;;;;;23.83;42.29;96078.50;4915021;28;21441;-61
2022/11/11 05:31:23;;;;;;;12.85;9.55;;;;;;;23.75;42.42;96096.53;4918737;28;20045;-61
2022/11/11 05:33:48;;;;;;;12.02;10.57;;;;;;;23.71;42.27;96082.41;4915192;28;20342;-63
2022/11/11 05:36:14;;;;;;;13.02;10.18;;;;;;;23.85;42.08;96092.41;4908673;28;20034;-60
2022/11/11 05:38:39;;;;;;;11.55;9.93;;;;;;;22.89;42.44;95910.78;4916745;28;21161;-60
2022/11/11 05:41:05;;;;;;;11.40;9.55;;;;;;;24.08;42.39;96094.78;4911172;28;20054;-61
2022/11/11 05:43:30;;;;;;;13.48;9.88;;;;;;;23.93;42.63;96099.63;4914555;28;20497;-62
2022/11/11 05:45:56;;;;;;;11.70;10.05;;;;;;;23.99;42.05;96103.91;4917514;28;20231;-60
2022/11/11 05:48:22;;;;;;;11.63;9.50;;;;;;;22.99;42.30;95969.31;4919198;28;20034;-61
2022/11/11 05:50:47;;;;;;;11.45;9.45;;;;;;;23.06;42.45;95952.56;4918671;28;20054;-59
2022/11/11 05:53:12;;;;;;;12.82;10.05;;;;;;;24.26;41.97;96116.97;4907913;28;20050;-60
2022/11/11 05:55:38;;;;;;;11.98;10.15;;;;;;;24.24;41.70;96122.16;4918246;28;20169;-60
2022/11/11 05:58:03;;;;;;;11.38;9.63;;;;;;;23.38;41.25;95967.63;4918214;28;20054;-59
2022/11/11 06:00:29;;;;;;;12.32;9.20;;;;;;;24.13;41.05;96053.88;4926292;28;20136;-59
2022/11/11 06:03:04;;;;;;;11.70;9.65;;;;;;;22.38;41.71;95846.75;4913497;28;21533;-60
2022/11/11 06:05:30;;;;;;;11.23;9.32;;;;;;;24.27;42.20;96140.28;4917668;28;21896;-59
2022/11/11 06:07:55;;;;;;;10.57;9.13;;;;;;;24.09;41.88;96118.84;4925382;28;20749;-62
2022/11/11 06:10:30;;;;;;;10.52;9.05;;;;;;;24.38;41.57;96115.81;4917007;28;20695;-61
2022/11/11 06:13:09;;;;;;;10.45;9.10;;;;;;;24.47;41.91;96140.19;4905886;28;20129;-60
2022/11/11 06:15:37;;;;;;;10.85;9.23;;;;;;;24.62;41.75;96148.94;4917416;28;20482;-59
2022/11/11 06:18:04;;;;;;;9.77;8.65;;;;;;;24.08;41.50;96101.00;4918716;28;20198;-60
2022/11/11 06:20:29;;;;;;;11.25;9.18;;;;;;;24.49;41.83;96154.84;4907233;28;20517;-63
2022/11/11 06:22:55;;;;;;;10.32;8.68;;;;;;;23.87;41.32;96036.88;4918586;28;20818;-60
2022/11/11 06:28:05;;;;;;;11.32;8.60;;;;;;;24.76;41.20;96180.81;4920118;28;22023;-61
2022/11/11 06:30:30;;;;;;;11.05;8.57;;;;;;;22.83;41.20;95889.44;4938801;28;20058;-60
2022/11/11 06:32:56;;;;;;;9.82;8.82;;;;;;;25.06;40.61;96172.50;4928370;28;20895;-61
2022/11/11 06:35:21;;;;;;;9.90;8.70;;;;;;;25.00;40.72;96158.06;4926660;28;20113;-59
2022/11/11 06:37:47;;;;;;;11.20;9.00;;;;;;;24.87;40.84;96176.88;4907456;28;20787;-63
2022/11/11 06:40:12;;;;;;;9.63;8.63;;;;;;;24.86;41.22;96185.56;4915843;28;20424;-63
2022/11/11 06:42:38;;;;;;;10.27;8.45;;;;;;;25.03;40.76;96178.22;4908732;28;20058;-61
2022/11/11 06:45:04;;;;;;;9.80;8.70;;;;;;;25.02;40.50;96188.41;4910791;28;20723;-60
2022/11/11 06:47:29;;;;;;;12.20;8.98;;;;;;;24.75;40.15;96113.72;4888779;28;20058;-65
2022/11/11 06:49:55;;;;;;;10.32;8.60;;;;;;;24.96;40.91;96195.03;4904343;28;20098;-63
2022/11/11 06:52:20;;;;;;;11.82;8.70;;;;;;;25.18;40.40;96189.69;4894795;28;20061;-61
2022/11/11 06:54:46;;;;;;;11.02;8.85;;;;;;;25.00;40.96;96182.66;4901601;28;20148;-63
2022/11/11 06:57:11;;;;;;;9.75;8.13;;;;;;;25.01;41.00;96211.50;4922598;28;20370;-62
2022/11/11 06:59:37;;;;;;;10.35;8.68;;;;;;;24.45;40.41;96069.69;4904939;28;20370;-61
2022/11/11 07:02:02;;;;;;;10.20;8.30;;;;;;;25.14;41.02;96186.44;4908236;28;21003;-61
2022/11/11 07:04:28;;;;;;;9.57;8.45;;;;;;;25.01;40.67;96175.22;4905828;28;20100;-61
2022/11/11 07:06:53;;;;;;;10.20;8.20;;;;;;;25.16;40.71;96187.44;4891385;28;20050;-61
2022/11/11 07:09:19;;;;;;;9.30;8.10;;;;;;;25.13;40.49;96193.16;4905959;28;20467;-63
2022/11/11 07:11:44;;;;;;;9.27;8.15;;;;;;;25.32;40.46;96203.16;4896604;28;20304;-61
2022/11/11 07:14:10;;;;;;;10.23;8.43;;;;;;;25.09;40.05;96166.03;4889647;28;20064;-61
2022/11/11 07:16:35;;;;;;;9.60;8.35;;;;;;;25.36;39.88;96189.97;4906449;28;20838;-59
2022/11/11 07:19:01;;;;;;;10.23;8.23;;;;;;;24.88;40.32;96123.72;4899656;28;20074;-61
2022/11/11 07:21:26;;;;;;;10.02;7.78;;;;;;;25.51;39.94;96201.44;4888343;28;20483;-62
2022/11/11 07:23:52;;;;;;;9.90;7.90;;;;;;;25.08;40.35;96158.34;4897330;28;20086;-60
2022/11/11 07:26:17;;;;;;;9.75;8.13;;;;;;;25.47;40.01;96207.16;4906408;28;21149;-60
2022/11/11 07:28:42;;;;;;;9.93;7.80;;;;;;;25.37;40.29;96207.88;4895509;28;20047;-60
2022/11/11 07:31:08;;;;;;;10.43;7.95;;;;;;;24.46;39.94;96065.72;4903213;28;22221;-62
2022/11/11 07:33:33;;;;;;;9.50;7.70;;;;;;;25.44;39.91;96235.50;4897031;28;20626;-62
2022/11/11 07:35:59;;;;;;;10.60;8.40;;;;;;;25.24;39.50;96172.06;4901991;28;20151;-63
2022/11/11 07:38:24;;;;;;;9.68;8.30;;;;;;;25.64;39.62;96226.34;4891264;28;20046;-64
2022/11/11 07:40:50;;;;;;;9.43;8.10;;;;;;;25.63;39.70;96230.31;4903583;28;21628;-63
2022/11/11 07:43:15;;;;;;;9.13;7.80;;;;;;;25.79;39.75;96237.84;4936097;28;20148;-62
2022/11/11 07:45:42;;;;;;;10.18;7.80;;;;;;;25.82;39.42;96227.38;4919550;28;20659;-64
2022/11/11 07:48:07;;;;;;;9.35;8.35;;;;;;;25.83;39.35;96228.88;4934943;28;21104;-62
2022/11/11 07:50:32;;;;;;;9.98;8.35;;;;;;;25.63;39.25;96202.97;4945628;28;20583;-63
2022/11/11 07:52:58;;;;;;;9.20;7.50;;;;;;;25.77;39.45;96237.56;4946256;28;20203;-63
2022/11/11 07:55:24;;;;;;;9.73;8.30;;;;;;;26.08;39.10;96238.09;4930973;28;20053;-62
2022/11/11 07:57:52;;;;;;;11.35;8.10;;;;;;;25.19;39.40;96128.31;4943491;28;20652;-60
2022/11/11 08:00:18;;;;;;;9.20;7.88;;;;;;;25.81;39.38;96247.81;4917847;28;20072;-62
2022/11/11 08:02:49;;;;;;;9.75;7.53;;;;;;;25.40;39.05;96152.22;4936079;28;21698;-62
2022/11/11 08:05:15;;;;;;;8.93;7.45;;;;;;;25.64;39.30;96210.69;4941063;28;20037;-60
2022/11/11 08:07:41;;;;;;;9.43;7.30;;;;;;;25.71;39.81;96228.63;4938457;28;20715;-62
2022/11/11 08:10:07;;;;;;;9.23;8.15;;;;;;;25.87;39.76;96251.28;4937053;28;20061;-61
2022/11/11 08:15:17;;;;;;;8.55;7.05;;;;;;;26.04;38.98;96254.78;4947251;28;20647;-60
2022/11/11 08:17:43;;;;;;;8.90;7.55;;;;;;;26.08;39.01;96244.31;4939557;28;22054;-61
2022/11/11 08:20:09;;;;;;;9.25;7.63;;;;;;;25.94;39.37;96278.16;4922932;28;20150;-60
2022/11/11 08:22:38;;;;;;;9.27;7.20;;;;;;;26.27;38.80;96246.09;4928553;28;20053;-61
2022/11/11 08:25:06;;;;;;;10.63;7.55;;;;;;;25.85;38.87;96209.97;4947346;28;20050;-62
2022/11/11 08:27:32;;;;;;;8.77;7.40;;;;;;;26.26;38.79;96251.31;4940208;28;20533;-63
2022/11/11 08:29:57;;;;;;;9.23;6.80;;;;;;;26.05;38.82;96228.91;4908316;28;20065;-60
2022/11/11 08:32:23;;;;;;;10.57;7.78;;;;;;;26.23;38.37;96233.88;4914227;28;20059;-61
2022/11/11 08:34:48;;;;;;;10.00;7.78;;;;;;;25.42;38.44;96149.72;4922362;28;20108;-62
2022/11/11 08:37:13;;;;;;;8.60;7.13;;;;;;;26.33;38.70;96248.84;4938438;28;20169;-62
2022/11/11 08:39:39;;;;;;;9.07;7.57;;;;;;;26.45;38.58;96256.53;4944659;28;20037;-62
2022/11/11 08:42:05;;;;;;;10.43;7.57;;;;;;;26.33;38.43;96265.28;4904615;28;20207;-60
2022/11/11 08:44:30;;;;;;;10.15;7.25;;;;;;;26.34;38.34;96255.81;4931960;28;20034;-62
2022/11/11 08:46:56;;;;;;;11.48;7.72;;;;;;;26.50;38.19;96249.56;4939109;28;21673;-63
2022/11/11 08:49:21;;;;;;;9.35;7.20;;;;;;;26.68;37.75;96251.78;4919612;28;21960;-60
2022/11/11 08:51:47;;;;;;;9.13;7.45;;;;;;;26.34;38.42;96225.69;4945580;28;20098;-63
2022/11/11 08:54:12;;;;;;;9.90;7.80;;;;;;;26.46;38.28;96252.56;4946964;28;21747;-62
2022/11/11 08:56:38;;;;;;;9.57;7.63;;;;;;;26.47;38.46;96253.31;4946135;28;20104;-60
2022/11/11 08:59:03;;;;;;;9.32;6.95;;;;;;;26.44;38.89;96254.31;4945815;28;20160;-59
2022/11/11 09:01:29;;;;;;;10.35;7.25;;;;;;;26.74;38.45;96249.78;4947433;28;20046;-62
2022/11/11 09:03:54;;;;;;;9.75;7.25;;;;;;;26.51;38.64;96248.31;4906759;28;20124;-60
2022/11/11 09:06:19;;;;;;;9.75;7.13;;;;;;;26.29;39.15;96218.19;4939509;28;20758;-61
2022/11/11 09:08:45;;;;;;;9.30;7.13;;;;;;;25.25;39.33;96102.47;4938209;28;20084;-61
2022/11/11 09:11:11;;;;;;;9.25;7.10;;;;;;;26.40;39.70;96248.34;4948742;28;20131;-60
2022/11/11 09:13:36;;;;;;;8.52;7.00;;;;;;;26.15;39.91;96249.31;4944914;28;20095;-61
2022/11/11 09:16:01;;;;;;;9.82;7.13;;;;;;;26.32;39.47;96274.72;4940057;28;21006;-62
2022/11/11 09:18:30;;;;;;;9.32;6.75;;;;;;;26.19;39.77;96238.88;4923265;28;20504;-61
2022/11/11 09:20:57;;;;;;;8.82;6.70;;;;;;;26.24;39.53;96229.16;4944365;28;20038;-60
2022/11/11 09:23:23;;;;;;;8.63;6.82;;;;;;;26.69;39.05;96243.06;4923544;28;20080;-60
2022/11/11 09:25:48;;;;;;;11.57;6.95;;;;;;;26.31;39.89;96245.88;4946899;28;20053;-61
2022/11/11 09:28:14;;;;;;;10.15;6.88;;;;;;;26.27;39.78;96251.56;4923367;28;20037;-60
2022/11/11 09:30:39;;;;;;;10.15;7.20;;;;;;;26.02;40.29;96251.03;4944116;28;20107;-60
2022/11/11 09:33:05;;;;;;;9.93;6.82;;;;;;;26.27;39.98;96245.31;4945695;28;20039;-60
2022/11/11 09:35:30;;;;;;;9.73;7.30;;;;;;;26.43;39.77;96247.34;4948728;28;20049;-59
2022/11/11 09:37:58;;;;;;;8.90;6.97;;;;;;;25.90;40.47;96222.94;4948771;28;20057;-61
2022/11/11 09:40:25;;;;;;;8.55;6.65;;;;;;;25.91;40.74;96268.22;4937565;28;20855;-60
2022/11/11 09:43:13;;;;;;;8.40;6.38;;;;;;;26.03;40.34;96241.59;4945972;28;20053;-61
2022/11/11 09:45:55;;;;;;;9.13;6.75;;;;;;;26.21;39.68;96241.09;4939679;28;20163;-62
2022/11/11 09:48:44;;;;;;;9.90;7.05;;;;;;;25.99;40.31;96236.38;4940225;28;20582;-62
2022/11/11 09:51:20;;;;;;;8.95;6.40;;;;;;;26.07;40.08;96234.63;4910424;28;20729;-61
2022/11/11 09:53:54;;;;;;;8.85;6.55;;;;;;;25.99;40.25;96233.63;4929123;28;20060;-61
2022/11/11 09:56:21;;;;;;;9.90;6.75;;;;;;;25.91;39.99;96191.56;4923669;28;22132;-60
2022/11/11 09:58:52;;;;;;;9.85;7.10;;;;;;;26.40;39.48;96229.16;4948727;28;20045;-60
2022/11/11 10:01:25;;;;;;;8.77;6.97;;;;;;;26.32;39.27;96192.56;4922409;28;20188;-60
2022/11/11 10:04:23;;;;;;;8.93;6.45;;;;;;;26.39;39.33;96246.84;4908972;28;20147;-60
2022/11/11 10:06:49;;;;;;;8.75;6.28;;;;;;;26.19;39.89;96221.66;4924108;28;20045;-61
2022/11/11 10:09:40;;;;;;;9.98;7.05;;;;;;;26.12;39.49;96195.53;4926547;28;20574;-61
2022/11/11 10:12:13;;;;;;;10.63;6.80;;;;;;;26.41;39.64;96211.47;4921775;28;20978;-60
2022/11/11 10:14:40;;;;;;;10.65;6.70;;;;;;;26.29;39.53;96199.03;4924994;28;20418;-61
2022/11/11 10:17:22;;;;;;;9.27;6.88;;;;;;;26.17;40.09;96218.69;4892508;28;21723;-60
2022/11/11 10:20:07;;;;;;;9.07;6.20;;;;;;;26.22;39.52;96199.53;4923848;28;20532;-60
2022/11/11 10:22:40;;;;;;;8.65;6.35;;;;;;;26.17;39.67;96213.94;4924939;28;20238;-60
2022/11/11 10:25:12;;;;;;;8.98;5.93;;;;;;;25.86;40.63;96189.59;4946314;28;20050;-62
2022/11/11 10:27:42;;;;;;;8.23;6.05;;;;;;;26.62;39.41;96201.72;4946754;28;20476;-62
2022/11/11 10:30:18;;;;;;;8.05;6.40;;;;;;;26.93;39.04;96216.59;4935779;28;20060;-59
2022/11/11 10:32:44;;;;;;;8.43;6.47;;;;;;;26.30;39.69;96200.53;4945068;28;20144;-61
2022/11/11 10:35:19;;;;;;;9.25;6.32;;;;;;;26.47;39.83;96214.94;4923688;28;20080;-61
2022/11/11 10:37:44;;;;;;;8.13;6.03;;;;;;;26.48;39.91;96210.97;4939472;28;20126;-59
2022/11/11 10:40:17;;;;;;;9.68;5.90;;;;;;;26.17;40.27;96170.13;4924266;28;22207;-60
2022/11/11 10:42:42;;;;;;;7.53;5.68;;;;;;;26.56;38.87;96179.06;4939334;28;20049;-60
2022/11/11 10:45:13;;;;;;;7.20;5.50;;;;;;;26.97;39.46;96197.91;4938756;28;20304;-61
2022/11/11 10:47:44;;;;;;;7.57;6.00;;;;;;;25.73;39.37;96053.75;4947830;28;20055;-59
2022/11/11 10:50:19;;;;;;;8.10;5.60;;;;;;;26.39;40.23;96211.22;4909313;28;20462;-60
2022/11/11 10:53:11;;;;;;;7.53;5.88;;;;;;;26.72;39.88;96203.69;4922966;28;21338;-63
2022/11/11 10:55:46;;;;;;;7.88;5.40;;;;;;;26.39;40.51;96197.53;4946040;28;20054;-62
2022/11/11 10:58:24;;;;;;;7.78;5.63;;;;;;;26.16;40.83;96207.00;4924510;28;20851;-62
2022/11/11 11:00:50;;;;;;;6.75;5.10;;;;;;;25.75;41.20;96193.56;4946431;28;20045;-62
2022/11/11 11:03:22;;;;;;;8.45;6.00;;;;;;;26.02;41.05;96205.28;4942263;28;20037;-59
2022/11/11 11:05:58;;;;;;;8.45;6.38;;;;;;;26.08;41.22;96206.00;4947820;28;20049;-59
2022/11/11 11:08:26;;;;;;;8.10;5.47;;;;;;;26.01;41.06;96200.28;4940788;28;20847;-61
2022/11/11 11:11:00;;;;;;;7.63;5.68;;;;;;;25.24;40.50;96059.94;4922167;28;20053;-61
2022/11/11 11:13:50;;;;;;;7.25;5.82;;;;;;;26.35;40.37;96186.06;4938443;28;20560;-60
2022/11/11 11:16:29;;;;;;;8.25;5.93;;;;;;;26.16;40.49;96190.56;4929595;28;20494;-61
2022/11/11 11:19:17;;;;;;;7.63;5.80;;;;;;;25.20;40.39;96029.41;4937777;28;20045;-60
2022/11/11 11:21:59;;;;;;;7.22;5.40;;;;;;;26.05;41.00;96185.13;4938466;28;20115;-61
2022/11/11 11:24:28;;;;;;;7.57;5.72;;;;;;;25.25;40.86;96053.25;4947792;28;20053;-60
2022/11/11 11:26:58;;;;;;;7.20;5.37;;;;;;;26.15;40.54;96178.13;4905031;28;20060;-58
2022/11/11 11:29:25;;;;;;;7.63;5.68;;;;;;;26.20;40.47;96174.63;4936838;28;20172;-59
2022/11/11 11:31:51;;;;;;;7.03;5.38;;;;;;;25.95;40.83;96159.22;4938768;28;20056;-60
2022/11/11 11:34:16;;;;;;;7.35;5.43;;;;;;;26.43;39.99;96143.25;4928022;28;22015;-59
2022/11/11 11:36:42;;;;;;;6.38;5.20;;;;;;;26.64;39.49;96128.00;4947677;28;20056;-61
2022/11/11 11:39:07;;;;;;;7.72;5.03;;;;;;;26.58;39.90;96160.88;4941140;28;21955;-60
2022/11/11 11:41:43;;;;;;;6.68;5.20;;;;;;;26.40;40.17;96155.22;4938147;28;20041;-61
2022/11/11 11:44:44;;;;;;;6.85;5.38;;;;;;;26.60;39.87;96152.16;4926254;28;20454;-62
2022/11/11 11:47:21;;;;;;;7.80;5.47;;;;;;;27.03;38.79;96157.50;4859632;28;20059;-60
2022/11/11 11:50:11;;;;;;;6.25;5.05;;;;;;;26.90;38.98;96160.03;4934590;28;20085;-61
2022/11/11 11:52:40;;;;;;;;;;;;;;;26.54;39.71;96154.16;4945953;28;20053;-60
2022/11/11 11:55:19;;;;;;;6.35;4.88;;;;;;;26.71;39.55;96152.88;4931700;28;19929;-60
2022/11/11 11:57:54;;;;;;;7.07;5.07;;;;;;;26.35;40.05;96175.13;4919779;28;20050;-61
2022/11/11 12:00:24;;;;;;;5.75;4.53;;;;;;;26.46;39.93;96180.59;4934538;28;20037;-61
2022/11/11 12:03:07;;;;;;;6.30;4.72;;;;;;;26.65;39.49;96159.59;4937776;28;22092;-59
2022/11/11 12:05:40;;;;;;;6.50;4.90;;;;;;;26.37;39.89;96134.28;4946679;28;21845;-60
2022/11/11 12:08:28;;;;;;;7.53;5.05;;;;;;;26.27;40.33;96157.69;4930534;28;20637;-60
2022/11/11 12:11:14;;;;;;;6.95;4.80;;;;;;;26.27;40.17;96152.22;4947293;28;20057;-61
2022/11/11 12:13:53;;;;;;;7.35;5.30;;;;;;;26.31;40.10;96147.25;4946945;28;20138;-61
2022/11/11 12:16:26;;;;;;;6.63;5.00;;;;;;;25.75;40.42;96095.03;4941257;28;20600;-62
2022/11/11 12:19:20;;;;;;;6.05;4.97;;;;;;;26.07;40.43;96143.50;4948023;28;20178;-61
2022/11/11 12:22:03;;;;;;;6.03;4.47;;;;;;;25.76;39.74;96026.13;4942437;28;21937;-61
2022/11/11 12:24:48;;;;;;;5.85;4.72;;;;;;;27.00;38.87;96142.03;4948449;28;20037;-61
2022/11/11 12:27:38;;;;;;;8.13;4.95;;;;;;;26.34;40.03;96136.03;4949174;28;20117;-62
2022/11/11 12:30:09;;;;;;;7.13;5.18;;;;;;;26.32;40.17;96132.28;4945426;28;20403;-60
2022/11/11 12:32:51;;;;;;;6.60;5.13;;;;;;;26.23;40.12;96135.28;4909415;28;20364;-60
2022/11/11 12:35:28;;;;;;;6.35;4.57;;;;;;;26.12;39.59;96107.91;4936190;28;20050;-59
2022/11/11 12:38:21;;;;;;;6.00;4.65;;;;;;;26.17;40.21;96148.22;4908163;28;20061;-62
2022/11/11 12:41:14;;;;;;;6.55;4.50;;;;;;;26.70;39.14;96110.25;4943457;28;20920;-60
2022/11/11 12:44:08;;;;;;;6.80;4.38;;;;;;;26.62;39.24;96116.78;4935050;28;21412;-61
2022/11/11 12:46:55;;;;;;;5.65;4.40;;;;;;;26.35;39.83;96125.81;4902511;28;20754;-60
2022/11/11 12:49:37;;;;;;;7.13;4.40;;;;;;;26.16;39.96;96130.34;4938312;28;20077;-59
2022/11/11 12:52:12;;;;;;;6.50;4.88;;;;;;;26.14;40.27;96127.31;4943230;28;20057;-61
2022/11/11 12:54:57;;;;;;;6.82;4.57;;;;;;;26.18;40.00;96127.81;4944144;28;20037;-60